createdAt,value
2023-05-24T00:00:12.211Z,52.84
2023-05-24T00:03:02.346Z,52.75
2023-05-24T00:05:31.573Z,52.81
2023-05-24T00:08:00.693Z,53.07
2023-05-24T00:10:29.696Z,53.24
2023-05-24T00:12:58.702Z,53.20
2023-05-24T00:15:27.700Z,53.27
2023-05-24T00:17:56.886Z,53.53
2023-05-24T00:20:26.328Z,53.63
2023-05-24T00:22:55.746Z,53.50
2023-05-24T00:25:24.978Z,53.55
2023-05-24T00:27:54.130Z,53.49
2023-05-24T00:30:23.141Z,53.67
2023-05-24T00:32:52.050Z,53.89
2023-05-24T00:35:21.276Z,53.92
2023-05-24T00:37:50.256Z,53.83
2023-05-24T00:40:19.607Z,53.96
2023-05-24T00:42:48.473Z,54.02
2023-05-24T00:45:17.376Z,54.25
2023-05-24T00:47:47.463Z,54.22
2023-05-24T00:50:17.000Z,54.33
2023-05-24T00:52:47.855Z,54.39
2023-05-24T00:55:17.453Z,54.42
2023-05-24T00:57:46.518Z,54.58
2023-05-24T01:00:16.540Z,54.65
2023-05-24T01:02:47.697Z,54.82
2023-05-24T01:05:17.285Z,54.90
2023-05-24T01:07:59.316Z,54.79
2023-05-24T01:10:39.321Z,54.76
2023-05-24T01:13:19.540Z,55.06
2023-05-24T01:15:54.315Z,55.05
2023-05-24T01:18:29.838Z,55.01
2023-05-24T01:21:15.298Z,55.41
2023-05-24T01:23:56.795Z,55.34
2023-05-24T01:26:37.746Z,55.40
2023-05-24T01:29:08.251Z,55.41
2023-05-24T01:31:37.837Z,55.60
2023-05-24T01:34:07.375Z,55.66
2023-05-24T01:36:36.490Z,55.73
2023-05-24T01:39:05.763Z,55.82
2023-05-24T01:41:41.325Z,55.90
2023-05-24T01:44:14.044Z,55.88
2023-05-24T01:46:47.615Z,56.31
2023-05-24T01:49:22.693Z,56.08
2023-05-24T01:51:54.713Z,56.12
2023-05-24T01:54:26.481Z,56.04
2023-05-24T01:56:58.776Z,56.17
2023-05-24T01:59:29.950Z,56.17
2023-05-24T02:01:59.272Z,56.51
2023-05-24T02:04:28.734Z,56.49
2023-05-24T02:06:57.737Z,56.56
2023-05-24T02:09:26.737Z,56.55
2023-05-24T02:11:55.689Z,56.60
2023-05-24T02:14:25.937Z,56.71
2023-05-24T02:16:58.527Z,56.81
2023-05-24T02:19:27.772Z,56.94
2023-05-24T02:21:56.962Z,57.05
2023-05-24T02:24:26.293Z,57.03
2023-05-24T02:26:55.439Z,56.90
2023-05-24T02:29:24.977Z,57.16
2023-05-24T02:31:56.126Z,57.32
2023-05-24T02:34:25.279Z,57.34
2023-05-24T02:36:55.353Z,57.34
2023-05-24T02:39:24.523Z,57.57
2023-05-24T02:41:53.550Z,57.62
2023-05-24T02:44:22.442Z,57.66
2023-05-24T02:46:51.381Z,57.72
2023-05-24T02:49:20.495Z,57.84
2023-05-24T02:51:49.501Z,57.95
2023-05-24T02:54:18.729Z,57.92
2023-05-24T02:56:47.766Z,57.80
2023-05-24T02:59:17.034Z,57.91
2023-05-24T03:01:46.242Z,57.94
2023-05-24T03:04:15.343Z,58.05
2023-05-24T03:06:45.302Z,57.92
2023-05-24T03:09:16.183Z,58.05
2023-05-24T03:11:45.152Z,58.17
2023-05-24T03:14:14.488Z,58.27
2023-05-24T03:16:43.475Z,58.19
2023-05-24T03:19:12.556Z,58.37
2023-05-24T03:21:41.754Z,58.30
2023-05-24T03:24:12.675Z,58.42
2023-05-24T03:26:41.813Z,58.44
2023-05-24T03:29:11.016Z,58.39
2023-05-24T03:31:40.071Z,58.47
2023-05-24T03:34:09.068Z,58.62
2023-05-24T03:36:38.110Z,58.61
2023-05-24T03:39:07.213Z,58.81
2023-05-24T03:41:36.147Z,58.73
2023-05-24T03:44:05.415Z,58.80
2023-05-24T03:46:34.418Z,58.95
2023-05-24T03:49:03.486Z,58.78
2023-05-24T03:51:32.671Z,58.91
2023-05-24T03:54:01.614Z,58.94
2023-05-24T03:56:30.683Z,59.00
2023-05-24T03:59:03.289Z,58.88
2023-05-24T04:01:34.704Z,58.79
2023-05-24T04:04:04.603Z,58.83
2023-05-24T04:06:36.164Z,58.88
2023-05-24T04:09:05.381Z,58.94
2023-05-24T04:11:35.619Z,58.87
2023-05-24T04:14:04.540Z,59.05
2023-05-24T04:16:33.682Z,59.09
2023-05-24T04:19:03.589Z,59.08
2023-05-24T04:21:32.794Z,59.09
2023-05-24T04:24:01.776Z,59.16
2023-05-24T04:26:31.457Z,59.02
2023-05-24T04:29:01.211Z,59.16
2023-05-24T04:31:32.816Z,59.19
2023-05-24T04:34:02.285Z,59.29
2023-05-24T04:36:33.402Z,59.19
2023-05-24T04:39:04.595Z,59.22
2023-05-24T04:41:35.413Z,59.09
2023-05-24T04:44:04.791Z,59.11
2023-05-24T04:46:35.626Z,59.19
2023-05-24T04:49:05.250Z,59.25
2023-05-24T04:51:37.831Z,59.10
2023-05-24T04:54:08.493Z,59.32
2023-05-24T04:56:38.212Z,59.27
2023-05-24T04:59:07.836Z,59.09
2023-05-24T05:01:36.915Z,59.02
2023-05-24T05:04:06.915Z,59.11
2023-05-24T05:06:38.199Z,58.91
2023-05-24T05:09:08.833Z,59.17
2023-05-24T05:11:38.140Z,59.09
2023-05-24T05:14:08.906Z,59.05
2023-05-24T05:16:39.149Z,58.95
2023-05-24T05:19:08.324Z,58.84
2023-05-24T05:21:39.168Z,58.85
2023-05-24T05:24:08.974Z,58.80
2023-05-24T05:26:37.913Z,58.84
2023-05-24T05:29:06.908Z,58.77
2023-05-24T05:31:35.996Z,58.78
2023-05-24T05:34:09.227Z,58.78
2023-05-24T05:36:40.296Z,58.65
2023-05-24T05:39:09.698Z,58.49
2023-05-24T05:41:43.019Z,58.45
2023-05-24T05:44:14.197Z,58.31
2023-05-24T05:46:45.554Z,58.30
2023-05-24T05:49:15.372Z,58.15
2023-05-24T05:51:44.798Z,58.16
2023-05-24T05:54:15.115Z,58.10
2023-05-24T05:56:47.286Z,57.97
2023-05-24T05:59:16.881Z,57.83
2023-05-24T06:01:48.466Z,57.80
2023-05-24T06:04:18.018Z,57.65
2023-05-24T06:06:48.959Z,57.37
2023-05-24T06:09:17.944Z,57.33
2023-05-24T06:11:47.171Z,57.13
2023-05-24T06:14:17.679Z,57.04
2023-05-24T06:16:47.542Z,56.78
2023-05-24T06:19:17.748Z,56.62
2023-05-24T06:21:47.745Z,56.47
2023-05-24T06:24:19.921Z,56.36
2023-05-24T06:26:50.564Z,56.24
2023-05-24T06:29:21.282Z,56.01
2023-05-24T06:31:50.860Z,55.75
2023-05-24T06:34:20.887Z,55.76
2023-05-24T06:36:50.710Z,55.70
2023-05-24T06:39:20.348Z,55.57
2023-05-24T06:41:50.841Z,55.49
2023-05-24T06:44:19.844Z,55.35
2023-05-24T06:46:48.884Z,55.32
2023-05-24T06:49:17.997Z,55.05
2023-05-24T06:51:47.467Z,54.76
2023-05-24T06:54:16.486Z,54.62
2023-05-24T06:56:45.651Z,54.34
2023-05-24T06:59:14.719Z,54.16
2023-05-24T07:01:43.699Z,53.98
2023-05-24T07:04:13.056Z,53.63
2023-05-24T07:06:42.083Z,53.57
2023-05-24T07:09:11.089Z,53.09
2023-05-24T07:11:40.705Z,53.07
2023-05-24T07:14:09.900Z,52.53
2023-05-24T07:16:38.928Z,52.26
2023-05-24T07:19:07.849Z,52.10
2023-05-24T07:21:37.121Z,51.73
2023-05-24T07:24:07.456Z,51.65
2023-05-24T07:26:36.435Z,51.14
2023-05-24T07:29:05.824Z,51.01
2023-05-24T07:31:34.768Z,50.59
2023-05-24T07:34:03.744Z,50.31
2023-05-24T07:36:34.806Z,49.92
2023-05-24T07:39:05.601Z,49.39
2023-05-24T07:41:34.680Z,49.48
2023-05-24T07:44:03.838Z,49.05
2023-05-24T07:46:34.693Z,48.55
2023-05-24T07:49:03.685Z,48.17
2023-05-24T07:51:33.294Z,48.04
2023-05-24T07:54:02.234Z,47.55
2023-05-24T07:56:31.622Z,47.18
2023-05-24T07:59:04.194Z,47.16
2023-05-24T08:01:34.604Z,46.97
2023-05-24T08:04:04.371Z,46.28
2023-05-24T08:06:34.656Z,45.90
2023-05-24T08:09:04.786Z,45.80
2023-05-24T08:11:33.695Z,45.38
2023-05-24T08:14:03.582Z,45.36
2023-05-24T08:16:33.370Z,45.19
2023-05-24T08:19:02.379Z,44.82
2023-05-24T08:21:33.341Z,44.48
2023-05-24T08:24:02.291Z,44.42
2023-05-24T08:26:31.266Z,44.31
2023-05-24T08:29:00.369Z,44.14
2023-05-24T08:31:29.680Z,43.59
2023-05-24T08:33:59.133Z,43.79
2023-05-24T08:36:28.252Z,43.65
2023-05-24T08:38:59.150Z,43.28
2023-05-24T08:41:29.500Z,43.00
2023-05-24T08:44:02.262Z,42.52
2023-05-24T08:46:33.035Z,42.47
2023-05-24T08:49:03.299Z,42.16
2023-05-24T08:51:32.757Z,41.34
2023-05-24T08:54:02.220Z,41.31
2023-05-24T08:56:32.164Z,40.96
2023-05-24T08:59:01.348Z,40.76
2023-05-24T09:01:33.997Z,40.40
2023-05-24T09:04:06.143Z,39.77
2023-05-24T09:06:36.466Z,39.62
2023-05-24T09:09:07.246Z,39.42
2023-05-24T09:11:39.355Z,39.22
2023-05-24T09:14:08.986Z,39.22
2023-05-24T09:16:38.044Z,38.93
2023-05-24T09:19:07.276Z,38.75
2023-05-24T09:21:36.297Z,38.12
2023-05-24T09:24:09.235Z,38.04
2023-05-24T09:26:38.093Z,37.53
2023-05-24T09:29:09.128Z,37.60
2023-05-24T09:31:40.186Z,37.36
2023-05-24T09:34:14.716Z,37.14
2023-05-24T09:36:46.116Z,36.97
2023-05-24T09:39:16.523Z,36.67
2023-05-24T09:41:54.987Z,36.49
2023-05-24T09:44:27.385Z,35.88
2023-05-24T09:47:04.302Z,35.58
2023-05-24T09:49:36.682Z,36.00
2023-05-24T09:52:06.629Z,35.74
2023-05-24T09:54:37.730Z,35.85
2023-05-24T09:57:07.300Z,35.58
2023-05-24T09:59:39.852Z,35.38
2023-05-24T10:02:10.998Z,35.27
2023-05-24T10:04:40.203Z,35.38
2023-05-24T10:07:09.752Z,35.30
2023-05-24T10:09:39.418Z,35.11
2023-05-24T10:12:09.449Z,34.92
2023-05-24T10:14:39.387Z,34.83
2023-05-24T10:17:08.949Z,34.62
2023-05-24T10:19:39.318Z,34.89
2023-05-24T10:22:09.836Z,34.69
2023-05-24T10:24:44.397Z,34.29
2023-05-24T10:27:19.145Z,33.97
2023-05-24T10:29:58.838Z,33.61
2023-05-24T10:32:31.041Z,33.59
2023-05-24T10:35:03.362Z,33.36
2023-05-24T10:37:32.578Z,33.23
2023-05-24T10:40:02.089Z,32.94
2023-05-24T10:42:33.158Z,33.01
2023-05-24T10:45:31.207Z,32.95
2023-05-24T10:48:08.060Z,32.91
2023-05-24T10:50:37.016Z,32.60
2023-05-24T10:53:16.198Z,32.73
2023-05-24T10:55:58.714Z,32.83
2023-05-24T10:58:45.585Z,32.51
2023-05-24T11:01:26.237Z,32.46
2023-05-24T11:04:09.847Z,32.28
2023-05-24T11:06:49.294Z,32.37
2023-05-24T11:09:19.712Z,31.82
2023-05-24T11:11:50.130Z,32.26
2023-05-24T11:14:25.043Z,32.16
2023-05-24T11:16:54.313Z,32.10
2023-05-24T11:19:29.337Z,32.09
2023-05-24T11:21:59.596Z,32.23
2023-05-24T11:24:29.776Z,32.07
2023-05-24T11:26:59.825Z,32.13
2023-05-24T11:29:28.846Z,32.10
2023-05-24T11:32:03.713Z,32.08
2023-05-24T11:34:33.105Z,32.01
2023-05-24T11:37:05.020Z,31.84
2023-05-24T11:39:36.079Z,31.76
2023-05-24T11:42:07.671Z,31.77
2023-05-24T11:44:38.271Z,31.69
2023-05-24T11:47:08.613Z,31.88
2023-05-24T11:49:37.516Z,31.86
2023-05-24T11:52:08.154Z,31.80
2023-05-24T11:54:38.352Z,31.86
2023-05-24T11:57:12.235Z,32.05
2023-05-24T11:59:42.319Z,32.04
2023-05-24T12:02:11.478Z,32.02
2023-05-24T12:04:41.263Z,32.09
2023-05-24T12:07:12.655Z,32.04
2023-05-24T12:09:41.843Z,32.16
2023-05-24T12:12:11.009Z,32.20
2023-05-24T12:14:40.784Z,32.31
2023-05-24T12:17:16.337Z,32.16
2023-05-24T12:19:48.781Z,32.35
2023-05-24T12:22:17.808Z,32.49
2023-05-24T12:24:51.581Z,32.60
2023-05-24T12:27:23.952Z,32.29
2023-05-24T12:29:52.807Z,32.10
2023-05-24T12:32:22.215Z,32.05
2023-05-24T12:34:51.131Z,32.09
2023-05-24T12:37:21.049Z,32.03
2023-05-24T12:39:51.758Z,31.90
2023-05-24T12:42:23.411Z,31.98
2023-05-24T12:44:53.849Z,31.92
2023-05-24T12:47:22.969Z,31.97
2023-05-24T12:49:51.975Z,31.80
2023-05-24T12:52:21.038Z,31.81
2023-05-24T12:54:50.109Z,31.80
2023-05-24T12:57:19.207Z,31.84
2023-05-24T12:59:49.167Z,31.82
2023-05-24T13:02:19.375Z,31.82
2023-05-24T13:04:48.476Z,31.76
2023-05-24T13:07:17.670Z,31.87
2023-05-24T13:09:46.655Z,31.84
2023-05-24T13:12:15.605Z,31.84
2023-05-24T13:14:44.530Z,31.88
2023-05-24T13:17:15.624Z,31.79
2023-05-24T13:19:44.784Z,31.62
2023-05-24T13:22:13.972Z,31.74
2023-05-24T13:24:43.095Z,31.55
2023-05-24T13:27:12.434Z,31.54
2023-05-24T13:29:52.641Z,31.56
2023-05-24T13:32:29.331Z,31.64
2023-05-24T13:34:58.956Z,31.49
2023-05-24T13:37:27.836Z,31.66
2023-05-24T13:39:56.667Z,31.66
2023-05-24T13:42:25.612Z,31.47
2023-05-24T13:44:55.643Z,31.48
2023-05-24T13:47:38.869Z,31.40
2023-05-24T13:50:11.539Z,31.44
2023-05-24T13:52:40.494Z,31.49
2023-05-24T13:55:10.824Z,31.37
2023-05-24T13:57:51.378Z,31.52
2023-05-24T14:00:22.996Z,31.55
2023-05-24T14:02:52.650Z,31.58
2023-05-24T14:07:54.531Z,31.55
2023-05-24T14:10:23.696Z,31.56
2023-05-24T14:13:10.775Z,31.67
2023-05-24T14:15:41.901Z,31.67
2023-05-24T14:18:11.216Z,31.79
2023-05-24T14:20:40.666Z,31.72
2023-05-24T14:23:11.151Z,31.67
2023-05-24T14:25:41.669Z,31.64
2023-05-24T14:28:11.854Z,31.39
2023-05-24T14:30:41.475Z,31.50
2023-05-24T14:33:10.735Z,31.29
2023-05-24T14:35:40.412Z,31.46
2023-05-24T14:38:10.874Z,31.53
2023-05-24T14:40:40.275Z,31.18
2023-05-24T14:43:09.991Z,31.15
2023-05-24T14:45:40.709Z,30.88
2023-05-24T14:48:10.828Z,31.07
2023-05-24T14:50:40.585Z,31.14
2023-05-24T14:53:11.320Z,31.06
2023-05-24T14:55:42.514Z,30.90
2023-05-24T14:58:12.471Z,30.81
2023-05-24T15:00:42.625Z,30.74
2023-05-24T15:03:13.823Z,30.66
2023-05-24T15:05:43.023Z,30.56
2023-05-24T15:08:12.500Z,30.46
2023-05-24T15:10:43.853Z,30.42
2023-05-24T15:13:13.691Z,30.46
2023-05-24T15:15:42.889Z,30.66
2023-05-24T15:18:12.160Z,30.57
2023-05-24T15:20:41.626Z,30.65
2023-05-24T15:23:11.043Z,30.60
2023-05-24T15:25:40.389Z,30.60
2023-05-24T15:28:12.238Z,30.54
2023-05-24T15:30:43.604Z,30.62
2023-05-24T15:33:13.178Z,30.39
2023-05-24T15:35:42.461Z,30.43
2023-05-24T15:38:11.641Z,30.37
2023-05-24T15:40:42.001Z,30.31
2023-05-24T15:43:11.437Z,30.41
2023-05-24T15:45:40.305Z,30.23
2023-05-24T15:48:09.620Z,30.30
2023-05-24T15:50:59.929Z,30.25
2023-05-24T15:53:27.880Z,30.24
2023-05-24T15:55:57.159Z,30.17
2023-05-24T15:58:26.257Z,30.21
2023-05-24T16:00:55.242Z,30.22
2023-05-24T16:03:24.178Z,30.13
2023-05-24T16:05:53.414Z,30.25
2023-05-24T16:08:27.046Z,30.47
2023-05-24T16:10:56.603Z,30.79
2023-05-24T16:13:25.711Z,30.63
2023-05-24T16:15:54.705Z,30.65
2023-05-24T16:18:23.790Z,30.78
2023-05-24T16:20:53.064Z,30.61
2023-05-24T16:23:22.567Z,30.73
2023-05-24T16:25:51.499Z,30.94
2023-05-24T16:28:23.276Z,31.01
2023-05-24T16:30:55.001Z,31.17
2023-05-24T16:33:23.990Z,31.38
2023-05-24T16:35:55.295Z,31.41
2023-05-24T16:38:25.436Z,31.74
2023-05-24T16:40:54.542Z,31.82
2023-05-24T16:43:23.371Z,31.63
2023-05-24T16:45:52.758Z,31.58
2023-05-24T16:48:27.465Z,31.54
2023-05-24T16:50:57.114Z,31.71
2023-05-24T16:53:27.183Z,31.83
2023-05-24T16:55:57.460Z,32.17
2023-05-24T16:58:27.954Z,32.19
2023-05-24T17:00:57.926Z,32.42
2023-05-24T17:03:29.045Z,32.49
2023-05-24T17:06:03.329Z,32.69
2023-05-24T17:08:34.884Z,32.56
2023-05-24T17:11:05.134Z,32.78
2023-05-24T17:13:34.274Z,32.82
2023-05-24T17:16:04.012Z,32.76
2023-05-24T17:18:33.280Z,33.09
2023-05-24T17:21:03.995Z,32.93
2023-05-24T17:23:36.025Z,33.10
2023-05-24T17:26:07.457Z,32.98
2023-05-24T17:28:36.620Z,32.98
2023-05-24T17:31:07.721Z,33.10
2023-05-24T17:33:36.870Z,33.14
2023-05-24T17:36:06.171Z,33.14
2023-05-24T17:38:37.156Z,33.48
2023-05-24T17:41:08.781Z,33.53
2023-05-24T17:43:39.902Z,33.80
2023-05-24T17:46:09.338Z,33.88
2023-05-24T17:48:40.201Z,33.95
2023-05-24T17:51:10.253Z,34.11
2023-05-24T17:53:43.020Z,34.14
2023-05-24T17:56:12.385Z,34.26
2023-05-24T17:58:41.574Z,34.34
2023-05-24T18:01:11.852Z,34.41
2023-05-24T18:03:42.156Z,34.59
2023-05-24T18:06:11.101Z,34.81
2023-05-24T18:08:42.672Z,34.88
2023-05-24T18:11:13.047Z,34.71
2023-05-24T18:13:43.475Z,34.88
2023-05-24T18:16:13.180Z,34.82
2023-05-24T18:18:43.447Z,34.86
2023-05-24T18:21:12.903Z,35.18
2023-05-24T18:23:42.416Z,35.05
2023-05-24T18:26:12.001Z,35.26
2023-05-24T18:28:42.433Z,35.37
2023-05-24T18:31:11.629Z,35.42
2023-05-24T18:33:40.611Z,35.66
2023-05-24T18:36:09.528Z,35.80
2023-05-24T18:38:39.421Z,35.90
2023-05-24T18:41:11.170Z,35.94
2023-05-24T18:43:42.220Z,35.98
2023-05-24T18:46:13.209Z,36.41
2023-05-24T18:48:42.643Z,36.39
2023-05-24T18:51:11.788Z,36.47
2023-05-24T18:53:40.796Z,36.81
2023-05-24T18:56:09.781Z,36.87
2023-05-24T18:58:38.627Z,36.94
2023-05-24T19:01:09.109Z,37.06
2023-05-24T19:03:41.106Z,37.24
2023-05-24T19:06:10.271Z,37.41
2023-05-24T19:08:39.575Z,37.49
2023-05-24T19:11:10.700Z,37.66
2023-05-24T19:13:39.633Z,37.84
2023-05-24T19:16:08.710Z,37.83
2023-05-24T19:18:37.812Z,37.82
2023-05-24T19:21:06.798Z,38.11
2023-05-24T19:23:35.939Z,38.30
2023-05-24T19:26:05.048Z,38.41
2023-05-24T19:28:37.284Z,38.47
2023-05-24T19:31:06.628Z,38.60
2023-05-24T19:33:40.505Z,38.85
2023-05-24T19:36:14.661Z,39.19
2023-05-24T19:38:43.636Z,39.09
2023-05-24T19:41:12.754Z,39.15
2023-05-24T19:43:42.604Z,39.30
2023-05-24T19:46:11.806Z,39.52
2023-05-24T19:48:41.820Z,39.65
2023-05-24T19:51:12.202Z,39.80
2023-05-24T19:53:41.144Z,39.99
2023-05-24T19:56:10.860Z,40.04
2023-05-24T19:58:40.556Z,40.28
2023-05-24T20:01:09.695Z,40.37
2023-05-24T20:03:39.024Z,40.44
2023-05-24T20:06:08.306Z,40.53
2023-05-24T20:08:37.448Z,40.45
2023-05-24T20:11:06.656Z,40.68
2023-05-24T20:13:35.664Z,40.87
2023-05-24T20:16:05.508Z,40.92
2023-05-24T20:18:35.025Z,40.89
2023-05-24T20:21:04.274Z,41.14
2023-05-24T20:23:33.322Z,41.38
2023-05-24T20:26:02.378Z,41.36
2023-05-24T20:28:32.182Z,41.45
2023-05-24T20:31:01.476Z,41.48
2023-05-24T20:33:30.820Z,41.72
2023-05-24T20:35:59.824Z,41.75
2023-05-24T20:38:28.964Z,41.77
2023-05-24T20:40:57.985Z,41.91
2023-05-24T20:43:26.884Z,42.09
2023-05-24T20:45:55.892Z,42.07
2023-05-24T20:48:24.976Z,42.39
2023-05-24T20:50:54.000Z,42.26
2023-05-24T20:53:22.897Z,42.55
2023-05-24T20:55:52.044Z,42.62
2023-05-24T20:58:21.133Z,42.86
2023-05-24T21:00:50.243Z,42.85
2023-05-24T21:03:19.512Z,42.99
2023-05-24T21:05:48.715Z,43.03
2023-05-24T21:08:18.030Z,43.21
2023-05-24T21:10:47.131Z,43.41
2023-05-24T21:13:15.965Z,43.52
2023-05-24T21:15:45.826Z,43.64
2023-05-24T21:18:14.880Z,43.91
2023-05-24T21:20:43.915Z,44.20
2023-05-24T21:23:12.762Z,44.20
2023-05-24T21:25:41.858Z,44.23
2023-05-24T21:28:10.888Z,44.38
2023-05-24T21:30:39.821Z,44.76
2023-05-24T21:33:09.002Z,44.89
2023-05-24T21:35:38.165Z,45.05
2023-05-24T21:38:07.029Z,45.35
2023-05-24T21:40:35.975Z,45.56
2023-05-24T21:43:05.062Z,45.73
2023-05-24T21:45:34.175Z,45.84
2023-05-24T21:48:03.290Z,46.06
2023-05-24T21:50:33.237Z,46.21
2023-05-24T21:53:02.857Z,46.56
2023-05-24T21:55:31.923Z,46.67
2023-05-24T21:58:01.120Z,46.95
2023-05-24T22:00:31.260Z,47.06
2023-05-24T22:03:00.317Z,47.14
2023-05-24T22:05:29.457Z,47.29
2023-05-24T22:07:58.423Z,47.49
2023-05-24T22:10:27.614Z,47.45
2023-05-24T22:12:56.717Z,47.68
2023-05-24T22:15:27.344Z,47.86
2023-05-24T22:17:58.039Z,47.95
2023-05-24T22:20:27.462Z,47.96
2023-05-24T22:22:58.357Z,48.15
2023-05-24T22:25:27.419Z,48.08
2023-05-24T22:27:56.582Z,48.06
2023-05-24T22:30:25.900Z,48.24
2023-05-24T22:32:55.810Z,48.34
2023-05-24T22:35:24.915Z,48.44
2023-05-24T22:37:54.048Z,48.57
2023-05-24T22:40:23.184Z,48.54
2023-05-24T22:42:52.103Z,48.56
2023-05-24T22:45:22.155Z,48.44
2023-05-24T22:47:51.097Z,48.44
2023-05-24T22:50:20.131Z,48.54
2023-05-24T22:52:49.182Z,48.51
2023-05-24T22:55:18.389Z,48.75
2023-05-24T22:57:47.378Z,48.73
2023-05-24T23:00:17.883Z,48.52
2023-05-24T23:02:46.919Z,48.44
2023-05-24T23:05:16.219Z,48.32
2023-05-24T23:07:45.420Z,48.57
2023-05-24T23:10:14.301Z,48.24
2023-05-24T23:12:43.874Z,48.26
2023-05-24T23:15:16.224Z,48.18
2023-05-24T23:17:45.832Z,48.27
2023-05-24T23:20:14.953Z,48.19
2023-05-24T23:22:44.068Z,48.15
2023-05-24T23:25:13.132Z,48.11
2023-05-24T23:27:42.092Z,48.09
2023-05-24T23:30:11.928Z,48.18
2023-05-24T23:32:40.996Z,48.22
2023-05-24T23:35:10.618Z,48.26
2023-05-24T23:37:39.568Z,48.16
2023-05-24T23:40:11.213Z,48.41
2023-05-24T23:42:40.295Z,48.34
2023-05-24T23:45:10.473Z,48.34
2023-05-24T23:47:39.522Z,48.44
2023-05-24T23:50:09.948Z,48.40
2023-05-24T23:52:38.790Z,48.52
2023-05-24T23:55:09.743Z,48.48
2023-05-24T23:57:41.560Z,48.46
